Time;durP1;ratioP1;P1;durP2;ratioP2;P2;SDS_P1;SDS_P2;PMS_P1;PMS_P2;Temp;Humidity;BMP_temperature;BMP_pressure;BME280_temperature;BME280_humidity;BME280_pressure;Samples;Min_cycle;Max_cycle;Signal;HPM_P1;HPM_P2
2021/10/18 00:00:47;;;;;;;44.30;24.20;;;;;;;8.89;59.50;99595.50;234567;1204;139046;-62
2021/10/18 00:05:50;;;;;;;38.00;22.40;;;;;;;8.95;59.68;99595.95;234687;1204;140045;-62
2021/10/18 00:10:53;;;;;;;40.30;23.70;;;;;;;9.02;59.69;99593.85;234748;1204;139116;-61
2021/10/18 00:16:16;;;;;;;39.80;22.90;;;;;;;9.02;59.69;99590.27;234523;1196;138874;-61
2021/10/18 00:21:19;;;;;;;38.30;22.00;;;;;;;9.01;59.83;99584.48;234674;1203;139916;-62
2021/10/18 00:26:23;;;;;;;44.90;24.10;;;;;;;8.95;59.97;99584.95;234374;1203;138883;-65
2021/10/18 00:31:27;;;;;;;42.50;24.70;;;;;;;8.88;60.04;99582.98;234486;1203;138501;-63
2021/10/18 00:36:31;;;;;;;41.30;24.00;;;;;;;8.83;60.06;99578.80;234079;1204;139263;-61
2021/10/18 00:41:34;;;;;;;46.60;25.50;;;;;;;8.75;60.57;99580.55;234636;1204;139207;-62
2021/10/18 00:46:37;;;;;;;45.60;25.60;;;;;;;8.67;60.51;99578.08;234726;1204;140054;-61
2021/10/18 00:51:40;;;;;;;44.80;25.30;;;;;;;8.61;60.66;99573.80;234528;1204;138773;-62
2021/10/18 00:56:44;;;;;;;47.70;25.90;;;;;;;8.53;60.97;99573.23;234547;1204;138087;-61
2021/10/18 01:01:49;;;;;;;43.30;25.50;;;;;;;8.49;60.87;99577.52;234725;1204;139482;-61
2021/10/18 01:06:54;;;;;;;48.00;26.50;;;;;;;8.49;61.25;99575.89;234618;1204;140095;-66
2021/10/18 01:11:57;;;;;;;47.10;27.60;;;;;;;8.51;61.47;99577.58;234733;1204;138739;-59
2021/10/18 01:17:00;;;;;;;47.20;26.60;;;;;;;8.54;61.37;99575.34;234798;1203;138410;-62
2021/10/18 01:22:04;;;;;;;48.50;26.70;;;;;;;8.51;61.57;99580.79;234761;1203;140291;-57
2021/10/18 01:27:07;;;;;;;46.10;28.80;;;;;;;8.42;61.65;99577.09;234676;1203;138712;-59
2021/10/18 01:32:10;;;;;;;54.40;31.10;;;;;;;8.36;61.81;99583.02;234262;1203;138778;-60
2021/10/18 01:37:14;;;;;;;54.80;31.30;;;;;;;8.31;61.97;99578.83;234733;1203;141357;-60
2021/10/18 01:42:17;;;;;;;54.20;32.10;;;;;;;8.25;62.06;99580.11;234689;1203;138427;-62
2021/10/18 01:47:20;;;;;;;64.40;31.30;;;;;;;8.25;62.02;99582.43;234678;1203;139131;-61
2021/10/18 01:52:24;;;;;;;56.80;33.10;;;;;;;8.28;62.20;99585.11;234661;1203;139616;-64
2021/10/18 01:57:27;;;;;;;57.70;32.00;;;;;;;8.33;62.38;99579.42;234679;1204;138584;-60
2021/10/18 02:02:30;;;;;;;57.60;32.60;;;;;;;8.31;62.37;99577.20;234712;1203;138643;-61
2021/10/18 02:07:33;;;;;;;56.60;33.00;;;;;;;8.26;62.35;99571.57;234641;1203;139049;-59
2021/10/18 02:12:36;;;;;;;62.30;34.40;;;;;;;8.25;62.47;99572.52;234600;1203;138735;-61
2021/10/18 02:17:41;;;;;;;60.10;34.10;;;;;;;8.23;62.64;99565.88;234553;1203;138721;-67
2021/10/18 02:22:44;;;;;;;61.40;33.40;;;;;;;8.22;62.70;99572.11;234162;1204;139780;-63
2021/10/18 02:27:47;;;;;;;60.10;33.50;;;;;;;8.21;62.83;99578.52;234343;1203;140012;-62
2021/10/18 02:32:50;;;;;;;59.10;33.60;;;;;;;8.17;62.88;99576.25;234706;1204;138613;-61
2021/10/18 02:37:53;;;;;;;66.10;34.20;;;;;;;8.17;62.95;99570.91;234523;1204;140942;-61
2021/10/18 02:42:56;;;;;;;59.90;34.10;;;;;;;8.20;63.32;99572.71;234260;1203;139856;-61
2021/10/18 02:47:59;;;;;;;62.80;33.90;;;;;;;8.22;63.19;99570.71;234561;1203;139244;-61
2021/10/18 02:53:02;;;;;;;60.50;32.80;;;;;;;8.20;63.13;99567.43;233946;1203;139036;-64
2021/10/18 02:58:05;;;;;;;63.20;33.70;;;;;;;8.16;63.16;99565.88;234191;1203;138808;-65
2021/10/18 03:03:09;;;;;;;62.70;34.90;;;;;;;8.10;63.30;99571.76;234557;1204;139756;-64
2021/10/18 03:08:12;;;;;;;70.50;36.50;;;;;;;8.07;63.34;99579.13;234563;1204;139339;-61
2021/10/18 03:13:18;;;;;;;68.60;37.50;;;;;;;8.02;63.41;99583.75;234686;1204;138779;-59
2021/10/18 03:18:21;;;;;;;77.60;38.80;;;;;;;7.99;63.79;99582.66;234103;1204;139531;-61
2021/10/18 03:23:24;;;;;;;74.20;39.80;;;;;;;7.99;63.83;99579.64;234829;1203;139327;-63
2021/10/18 03:28:27;;;;;;;74.40;39.70;;;;;;;7.99;63.78;99573.84;234040;1204;140713;-60
2021/10/18 03:33:40;;;;;;;76.80;39.40;;;;;;;8.01;63.90;99581.32;234250;1203;139746;-60
2021/10/18 03:38:44;;;;;;;75.20;40.20;;;;;;;8.01;64.04;99582.02;234556;1203;138543;-59
2021/10/18 03:43:47;;;;;;;76.40;41.40;;;;;;;8.02;63.96;99583.77;234107;1204;139019;-60
2021/10/18 03:48:50;;;;;;;73.30;39.70;;;;;;;8.01;64.04;99587.50;234355;1204;138715;-65
2021/10/18 03:53:53;;;;;;;80.40;41.90;;;;;;;8.01;64.21;99586.30;234497;1203;139306;-62
2021/10/18 03:58:56;;;;;;;75.30;41.90;;;;;;;8.00;64.38;99594.42;234377;1203;138829;-59
2021/10/18 04:03:59;;;;;;;130.30;71.80;;;;;;;8.06;64.73;99594.55;234044;1204;139657;-60
2021/10/18 04:09:02;;;;;;;71.60;38.90;;;;;;;8.28;65.01;99590.07;234681;1204;139753;-60
2021/10/18 04:14:06;;;;;;;76.70;41.50;;;;;;;8.40;64.71;99590.45;234684;1203;139494;-61
2021/10/18 04:19:09;;;;;;;71.80;38.80;;;;;;;8.44;64.41;99596.80;234639;1203;139171;-58
2021/10/18 04:24:12;;;;;;;69.40;37.80;;;;;;;8.45;64.33;99599.59;234669;1204;139638;-59
2021/10/18 04:29:15;;;;;;;73.50;40.20;;;;;;;8.52;64.71;99604.59;234821;1203;139707;-60
2021/10/18 04:34:18;;;;;;;68.20;38.20;;;;;;;8.63;64.38;99606.79;234608;1203;138712;-61
2021/10/18 04:39:26;;;;;;;73.10;37.50;;;;;;;8.62;64.23;99608.58;234709;1203;141759;-61
2021/10/18 04:44:29;;;;;;;67.70;36.30;;;;;;;8.61;64.36;99609.15;234751;1203;139171;-61
2021/10/18 04:49:32;;;;;;;74.00;38.10;;;;;;;8.61;64.31;99612.36;234658;1203;139400;-59
2021/10/18 04:54:35;;;;;;;69.30;37.70;;;;;;;8.61;64.37;99624.36;233624;1204;210052;-60
2021/10/18 04:59:38;;;;;;;76.20;38.50;;;;;;;8.64;64.37;99626.89;233822;1204;139084;-60
2021/10/18 05:04:41;;;;;;;74.70;38.70;;;;;;;8.65;64.24;99634.96;234824;1204;138665;-58
2021/10/18 05:09:44;;;;;;;67.40;37.20;;;;;;;8.66;64.48;99639.53;233993;1204;139009;-60
2021/10/18 05:14:47;;;;;;;66.20;36.60;;;;;;;8.66;64.46;99646.77;234210;1203;139513;-59
2021/10/18 05:19:50;;;;;;;72.10;38.20;;;;;;;8.69;64.51;99649.80;234049;1204;138914;-59
2021/10/18 05:24:53;;;;;;;69.70;37.10;;;;;;;8.74;64.62;99657.21;234624;1204;138810;-60
2021/10/18 05:29:56;;;;;;;63.40;36.40;;;;;;;8.77;64.69;99666.10;233808;1204;138682;-60
2021/10/18 05:34:59;;;;;;;62.00;33.40;;;;;;;8.80;64.57;99673.77;234544;1203;138700;-62
2021/10/18 05:40:03;;;;;;;64.40;33.80;;;;;;;8.77;64.77;99685.92;233946;1204;138737;-61
2021/10/18 05:45:06;;;;;;;57.90;31.60;;;;;;;8.81;64.90;99696.71;234532;1203;139393;-62
2021/10/18 05:50:09;;;;;;;67.80;35.60;;;;;;;8.85;64.90;99699.70;234728;1204;139302;-63
2021/10/18 05:55:12;;;;;;;69.50;35.50;;;;;;;8.91;64.96;99703.89;234447;1203;138707;-62
2021/10/18 06:00:20;;;;;;;69.50;35.90;;;;;;;8.98;65.21;99710.63;234575;1204;139103;-65
2021/10/18 06:05:24;;;;;;;60.70;33.00;;;;;;;9.01;65.14;99711.22;234796;1203;139357;-63
2021/10/18 06:10:27;;;;;;;56.00;29.10;;;;;;;8.99;65.30;99721.01;234675;1203;138690;-60
2021/10/18 06:15:30;;;;;;;57.90;30.50;;;;;;;8.94;65.28;99719.86;234678;1204;138895;-58
2021/10/18 06:20:33;;;;;;;52.30;28.10;;;;;;;8.87;65.48;99727.07;234618;1204;138730;-57
2021/10/18 06:25:36;;;;;;;48.60;27.70;;;;;;;8.83;65.46;99733.59;234405;1203;139164;-59
2021/10/18 06:30:40;;;;;;;49.20;27.60;;;;;;;8.86;65.76;99738.42;234716;1204;138881;-61
2021/10/18 06:35:43;;;;;;;42.50;24.30;;;;;;;8.89;65.85;99748.20;234712;1203;139449;-60
2021/10/18 06:40:49;;;;;;;45.40;23.80;;;;;;;8.90;65.94;99755.39;234671;1204;139296;-59
2021/10/18 06:45:52;;;;;;;;;;;;;;;8.91;66.23;99761.02;234612;1204;138794;-59
2021/10/18 06:50:55;;;;;;;39.80;22.50;;;;;;;8.88;66.07;99764.90;234777;1203;124879;-59
2021/10/18 06:56:04;;;;;;;37.40;21.00;;;;;;;8.81;66.28;99764.66;234721;1203;139311;-61
2021/10/18 07:01:07;;;;;;;38.30;22.50;;;;;;;8.81;66.40;99764.33;234627;1203;140694;-59
2021/10/18 07:06:11;;;;;;;40.20;23.30;;;;;;;8.87;66.60;99767.05;234597;1203;139475;-60
2021/10/18 07:11:16;;;;;;;35.20;22.50;;;;;;;8.93;66.64;99775.48;234536;1204;139012;-60
2021/10/18 07:16:20;;;;;;;38.80;21.80;;;;;;;9.00;66.95;99786.46;234567;1203;140090;-60
2021/10/18 07:21:24;;;;;;;39.50;23.70;;;;;;;9.05;67.04;99790.88;234345;1204;231981;-60
2021/10/18 07:26:27;;;;;;;38.40;22.70;;;;;;;9.03;66.83;99792.73;234631;1203;139048;-59
2021/10/18 07:31:33;;;;;;;43.80;25.20;;;;;;;9.07;66.88;99797.33;234663;1203;140095;-60
2021/10/18 07:36:36;;;;;;;41.10;23.70;;;;;;;9.10;66.99;99798.41;234567;1204;139925;-61
2021/10/18 07:41:40;;;;;;;39.90;23.20;;;;;;;9.14;67.05;99795.76;234735;1203;139072;-60
2021/10/18 07:46:44;;;;;;;38.20;22.50;;;;;;;9.13;67.31;99795.11;234676;1204;138503;-61
2021/10/18 07:51:47;;;;;;;40.80;24.70;;;;;;;9.05;67.25;99801.66;234418;1204;140649;-60
2021/10/18 07:56:51;;;;;;;40.10;23.70;;;;;;;9.02;67.75;99806.05;234509;1204;139615;-65
2021/10/18 08:01:55;;;;;;;38.00;25.10;;;;;;;9.05;67.72;99808.74;233948;1204;138923;-60
2021/10/18 08:06:58;;;;;;;46.10;25.50;;;;;;;9.05;67.84;99815.64;234495;1204;138555;-63
2021/10/18 08:12:02;;;;;;;48.60;25.80;;;;;;;9.04;67.98;99817.29;234657;1203;138716;-61
2021/10/18 08:17:06;;;;;;;39.50;24.30;;;;;;;9.03;68.03;99820.14;234308;1204;138825;-61
2021/10/18 08:22:09;;;;;;;39.80;26.10;;;;;;;9.06;68.32;99820.73;234567;1204;138672;-60
2021/10/18 08:27:12;;;;;;;40.70;25.60;;;;;;;9.10;68.31;99822.48;234569;1203;139170;-61
2021/10/18 08:32:15;;;;;;;397.50;260.60;;;;;;;9.16;68.37;99826.48;234655;1203;139113;-60
2021/10/18 08:37:18;;;;;;;52.50;29.40;;;;;;;9.31;68.83;99832.89;234399;1204;139711;-60
2021/10/18 08:42:29;;;;;;;42.90;27.80;;;;;;;9.37;68.64;99841.17;234599;1204;139582;-61
2021/10/18 08:47:34;;;;;;;45.60;28.60;;;;;;;9.41;68.52;99846.63;234721;1204;139799;-60
2021/10/18 08:52:40;;;;;;;38.40;26.20;;;;;;;9.46;68.60;99853.85;234495;1204;139609;-60
2021/10/18 08:57:44;;;;;;;43.20;26.40;;;;;;;9.52;68.48;99848.27;234458;1203;139432;-60
2021/10/18 09:02:47;;;;;;;42.80;26.10;;;;;;;9.59;68.70;99844.97;234567;1203;139867;-60
2021/10/18 09:07:50;;;;;;;37.30;26.50;;;;;;;9.66;68.85;99847.84;234476;1205;139725;-62
2021/10/18 09:13:08;;;;;;;42.20;27.50;;;;;;;9.70;68.89;99844.98;234310;1205;138652;-61
2021/10/18 09:18:19;;;;;;;40.30;27.30;;;;;;;9.72;68.91;99847.20;234207;1205;139188;-63
2021/10/18 09:23:36;;;;;;;45.30;27.70;;;;;;;9.74;68.98;99847.79;233945;1205;139807;-58
2021/10/18 09:28:40;;;;;;;38.60;25.20;;;;;;;9.84;69.05;99843.44;234125;1206;140012;-60
2021/10/18 09:33:48;;;;;;;41.00;25.00;;;;;;;9.87;68.65;99840.30;234275;1204;138932;-60
2021/10/18 09:39:12;;;;;;;37.80;24.60;;;;;;;9.87;68.73;99840.12;233837;1205;139476;-59
2021/10/18 09:44:26;;;;;;;36.30;25.50;;;;;;;9.85;68.91;99846.06;234177;1205;138824;-60
2021/10/18 10:54:48;;;;;;;28.60;19.00;;;;;;;10.33;69.38;99866.39;234274;1204;139557;-61
2021/10/18 10:59:53;;;;;;;27.40;19.00;;;;;;;10.37;69.26;99866.90;234241;1204;139944;-60
2021/10/18 11:04:57;;;;;;;28.40;19.40;;;;;;;10.37;69.11;99871.48;234105;1204;140250;-64
2021/10/18 11:10:02;;;;;;;31.90;21.00;;;;;;;10.36;69.26;99865.53;233601;1204;139388;-61
2021/10/18 11:15:07;;;;;;;33.40;20.60;;;;;;;10.34;69.28;99861.70;234376;1204;141468;-61
2021/10/18 11:20:16;;;;;;;31.30;21.70;;;;;;;10.35;69.47;99857.61;234605;1204;140697;-61
2021/10/18 11:25:25;;;;;;;35.60;22.10;;;;;;;10.37;69.57;99850.73;234636;1204;138909;-61
2021/10/18 11:30:32;;;;;;;38.90;24.10;;;;;;;10.40;69.65;99844.58;234552;1204;139812;-62
2021/10/18 11:35:36;;;;;;;31.90;20.70;;;;;;;10.45;69.74;99854.09;234338;1204;139412;-62
2021/10/18 11:40:48;;;;;;;33.00;21.30;;;;;;;10.46;68.95;99861.48;234652;1204;140588;-59
2021/10/18 11:45:54;;;;;;;32.60;21.90;;;;;;;10.47;69.35;99865.17;234518;1204;138978;-61
2021/10/18 11:51:00;;;;;;;35.80;22.90;;;;;;;10.47;69.71;99869.27;234676;1204;139071;-59
2021/10/18 11:56:04;;;;;;;;;;;;;;;10.45;69.44;99877.88;234760;1204;139817;-60
2021/10/18 12:01:15;;;;;;;38.80;23.90;;;;;;;10.39;69.30;99872.64;234718;1204;125433;-61
2021/10/18 12:06:18;;;;;;;43.30;24.60;;;;;;;10.41;69.78;99875.55;234643;1203;140218;-60
2021/10/18 12:11:25;;;;;;;41.70;25.90;;;;;;;10.46;69.80;99868.27;234816;1204;139142;-62
2021/10/18 12:16:29;;;;;;;42.80;27.90;;;;;;;10.50;69.97;99866.45;234725;1204;138914;-60
2021/10/18 12:21:36;;;;;;;48.90;30.80;;;;;;;10.53;69.70;99864.89;234725;1204;139018;-61
2021/10/18 12:26:39;;;;;;;54.60;32.40;;;;;;;10.55;70.12;99864.05;234393;1204;139445;-60
2021/10/18 12:31:44;;;;;;;54.80;32.80;;;;;;;10.58;69.79;99863.74;234550;1204;138725;-60
2021/10/18 12:37:05;;;;;;;49.20;29.70;;;;;;;10.58;69.87;99861.63;234699;1205;140172;-61
2021/10/18 12:42:11;;;;;;;52.50;32.90;;;;;;;10.57;69.70;99868.59;234553;1204;139277;-60
2021/10/18 12:47:17;;;;;;;55.40;33.40;;;;;;;10.58;70.07;99872.95;234868;1204;138447;-61
2021/10/18 12:52:31;;;;;;;47.00;30.80;;;;;;;10.63;70.25;99878.55;234379;1203;139287;-62
2021/10/18 12:57:35;;;;;;;53.00;33.80;;;;;;;10.64;69.97;99877.46;233165;1205;138920;-63
2021/10/18 13:02:39;;;;;;;49.90;30.40;;;;;;;10.63;70.04;99875.37;234160;1203;138836;-60
2021/10/18 13:07:49;;;;;;;48.50;31.50;;;;;;;10.61;69.78;99876.36;234559;1203;140056;-60
2021/10/18 13:12:52;;;;;;;46.60;29.70;;;;;;;10.61;70.22;99876.01;234623;1203;140442;-61
2021/10/18 13:17:55;;;;;;;52.50;31.30;;;;;;;10.56;70.12;99887.42;234732;1204;138746;-62
2021/10/18 13:23:01;;;;;;;46.90;30.70;;;;;;;10.54;70.26;99894.08;234567;1204;139265;-62
2021/10/18 13:28:06;;;;;;;40.70;27.10;;;;;;;10.59;70.18;99898.45;234623;1204;139612;-61
2021/10/18 13:33:09;;;;;;;55.50;34.30;;;;;;;10.66;70.46;99899.57;234522;1204;139309;-61
2021/10/18 13:38:14;;;;;;;52.00;34.30;;;;;;;10.69;70.20;99899.42;234591;1204;138848;-61
2021/10/18 13:43:17;;;;;;;57.60;33.00;;;;;;;10.73;70.30;99897.64;234622;1204;139820;-60
2021/10/18 13:48:20;;;;;;;56.80;32.70;;;;;;;10.71;69.99;99897.01;234283;1204;138673;-62
2021/10/18 13:53:24;;;;;;;53.10;31.70;;;;;;;10.74;70.42;99897.41;234616;1204;139742;-60
2021/10/18 13:58:27;;;;;;;49.80;32.20;;;;;;;10.79;70.37;99905.33;234451;1204;139293;-61
2021/10/18 14:03:35;;;;;;;52.10;31.80;;;;;;;10.80;70.29;99898.17;234604;1203;139625;-63
2021/10/18 14:08:39;;;;;;;56.40;35.50;;;;;;;10.77;70.30;99894.08;234620;1204;139091;-60
2021/10/18 14:13:44;;;;;;;62.40;36.00;;;;;;;10.76;70.61;99900.85;234148;1204;139419;-61
2021/10/18 14:18:48;;;;;;;56.60;34.20;;;;;;;10.79;70.33;99896.27;234357;1203;139604;-61
2021/10/18 14:23:51;;;;;;;58.90;35.60;;;;;;;10.82;70.25;99900.75;234745;1204;138957;-62
2021/10/18 14:28:55;;;;;;;60.40;35.80;;;;;;;10.84;70.34;99899.58;233697;1204;139278;-62
2021/10/18 14:33:58;;;;;;;57.30;34.30;;;;;;;10.81;70.53;99898.11;234622;1204;139560;-61
2021/10/18 14:39:03;;;;;;;50.80;29.00;;;;;;;10.74;70.33;99899.50;234464;1204;139273;-63
2021/10/18 14:44:07;;;;;;;53.70;33.80;;;;;;;10.71;70.33;99903.76;234560;1203;139594;-62
2021/10/18 14:49:11;;;;;;;60.00;35.30;;;;;;;10.72;70.34;99904.06;234560;1204;138908;-62
2021/10/18 14:54:15;;;;;;;60.90;34.40;;;;;;;10.73;70.90;99910.05;234664;1203;139922;-61
2021/10/18 14:59:18;;;;;;;57.00;33.30;;;;;;;10.72;70.79;99912.23;234641;1204;139806;-62
2021/10/18 15:04:21;;;;;;;57.90;34.60;;;;;;;10.70;70.71;99914.63;234186;1204;139899;-61
2021/10/18 15:09:24;;;;;;;59.60;35.90;;;;;;;10.75;70.76;99920.95;234528;1204;139859;-61
2021/10/18 15:14:27;;;;;;;58.70;35.00;;;;;;;10.82;70.88;99929.86;234376;1204;139136;-61
2021/10/18 15:19:30;;;;;;;55.70;32.40;;;;;;;10.85;70.80;99933.95;234091;1204;138960;-60
2021/10/18 15:24:36;;;;;;;;;;;;;;;10.85;70.95;99936.46;234567;1203;139131;-61
2021/10/18 15:29:40;;;;;;;49.70;30.20;;;;;;;10.82;70.95;99936.92;234757;1204;124602;-60
2021/10/18 15:34:43;;;;;;;56.00;33.10;;;;;;;10.85;71.03;99937.30;234574;1203;139200;-61
2021/10/18 15:39:46;;;;;;;54.10;32.10;;;;;;;10.93;71.04;99942.95;234593;1204;140102;-60
2021/10/18 15:44:49;;;;;;;50.30;32.10;;;;;;;10.93;70.79;99951.84;234446;1204;139195;-60
2021/10/18 15:49:55;;;;;;;;;;;;;;;10.87;70.61;99953.55;234654;1204;138959;-60
2021/10/18 15:54:59;;;;;;;52.30;31.50;;;;;;;10.82;70.85;99957.87;234444;1203;125297;-61
2021/10/18 16:00:09;;;;;;;49.70;30.30;;;;;;;10.82;71.03;99957.36;234744;1204;139090;-62
2021/10/18 16:05:15;;;;;;;51.40;31.00;;;;;;;10.84;70.90;99956.72;234380;1204;139628;-61
2021/10/18 16:10:20;;;;;;;46.40;28.70;;;;;;;10.87;70.97;99956.23;234644;1203;139712;-62
2021/10/18 16:15:24;;;;;;;51.30;31.30;;;;;;;10.88;71.03;99958.33;234430;1204;138681;-60
2021/10/18 16:20:27;;;;;;;50.00;30.90;;;;;;;10.90;70.91;99963.53;234631;1204;140245;-60
2021/10/18 16:25:30;;;;;;;50.40;30.40;;;;;;;10.92;71.11;99962.02;234462;1203;138758;-61
2021/10/18 16:30:34;;;;;;;44.40;29.40;;;;;;;10.91;71.01;99959.06;234378;1204;138860;-60
2021/10/18 16:35:40;;;;;;;265.60;150.20;;;;;;;10.91;70.95;99962.79;234601;1203;140473;-61
2021/10/18 16:40:44;;;;;;;46.20;30.30;;;;;;;11.01;71.10;99966.38;234501;1204;140174;-62
2021/10/18 16:45:48;;;;;;;44.90;29.40;;;;;;;11.04;70.91;99959.31;234634;1203;139043;-61
2021/10/18 16:50:52;;;;;;;46.20;30.80;;;;;;;10.99;70.85;99961.48;234552;1197;141505;-59
2021/10/18 16:55:57;;;;;;;44.00;28.70;;;;;;;10.94;71.05;99962.27;233942;1204;138599;-61
2021/10/18 17:01:00;;;;;;;42.40;30.10;;;;;;;10.92;71.12;99964.69;234263;1203;139763;-62
2021/10/18 17:06:04;;;;;;;43.60;30.10;;;;;;;10.94;71.04;99965.63;234661;1203;139255;-58
2021/10/18 17:11:07;;;;;;;51.20;33.40;;;;;;;10.99;71.30;99963.95;234644;1204;139204;-58
2021/10/18 17:16:10;;;;;;;44.20;30.40;;;;;;;11.12;71.36;99963.87;234572;1204;138857;-59
2021/10/18 17:21:14;;;;;;;43.80;28.80;;;;;;;11.07;71.03;99967.70;234572;1204;139324;-58
2021/10/18 17:26:17;;;;;;;43.90;29.10;;;;;;;11.00;71.03;99970.52;234546;1203;140231;-60
2021/10/18 17:31:21;;;;;;;42.30;29.30;;;;;;;10.96;70.83;99970.88;234683;1204;139183;-60
2021/10/18 17:36:24;;;;;;;49.80;30.30;;;;;;;10.90;70.92;99971.50;234552;1203;139265;-60
2021/10/18 17:41:27;;;;;;;46.80;30.40;;;;;;;10.83;71.24;99978.63;234489;1203;139876;-59
2021/10/18 17:46:30;;;;;;;46.10;29.80;;;;;;;10.78;71.23;99985.08;234499;1203;138970;-60
2021/10/18 17:51:33;;;;;;;44.10;29.80;;;;;;;10.77;71.03;99975.88;234447;1204;141111;-59
2021/10/18 17:56:38;;;;;;;55.70;33.60;;;;;;;10.73;71.15;99972.91;233675;1203;138574;-60
2021/10/18 18:01:41;;;;;;;191.00;136.70;;;;;;;10.68;71.13;99969.73;234591;1203;139909;-61
2021/10/18 18:06:45;;;;;;;47.80;32.60;;;;;;;10.77;71.90;99967.91;234704;1203;140208;-61
2021/10/18 18:11:48;;;;;;;50.60;32.60;;;;;;;10.89;71.48;99960.77;234653;1204;139757;-60
2021/10/18 18:16:55;;;;;;;47.10;32.10;;;;;;;10.83;71.33;99965.85;234641;1203;139708;-61
2021/10/18 18:21:58;;;;;;;49.30;29.80;;;;;;;10.77;71.36;99955.67;234648;1203;138832;-62
2021/10/18 18:27:02;;;;;;;49.90;31.20;;;;;;;10.70;71.46;99955.98;234622;1204;139294;-59
2021/10/18 18:32:05;;;;;;;47.20;30.50;;;;;;;10.63;71.45;99958.23;234639;1203;140722;-63
2021/10/18 18:37:08;;;;;;;176.90;114.90;;;;;;;10.57;71.28;99959.44;234551;1204;139749;-60
2021/10/18 18:42:12;;;;;;;47.40;29.60;;;;;;;10.69;71.82;99971.66;234554;1204;140746;-59
2021/10/18 18:47:15;;;;;;;45.20;30.10;;;;;;;10.68;71.42;99979.70;234547;1204;139773;-60
2021/10/18 18:52:18;;;;;;;44.60;29.00;;;;;;;10.68;71.24;99992.13;234601;1204;140714;-60
2021/10/18 18:57:21;;;;;;;46.60;29.50;;;;;;;10.68;71.43;99994.41;234590;1204;142197;-61
2021/10/18 19:02:24;;;;;;;47.10;28.70;;;;;;;10.72;71.41;100002.89;234703;1204;140146;-59
2021/10/18 19:07:28;;;;;;;50.10;31.70;;;;;;;10.74;71.18;100010.83;234391;1204;140030;-62
2021/10/18 19:12:31;;;;;;;52.10;32.10;;;;;;;10.74;71.37;100005.68;234628;1204;139107;-59
2021/10/18 19:17:34;;;;;;;47.80;28.40;;;;;;;10.71;71.05;99998.69;233328;1203;140637;-59
2021/10/18 19:22:40;;;;;;;49.90;31.50;;;;;;;10.66;70.95;99981.91;234019;1203;138980;-58
2021/10/18 19:27:43;;;;;;;;;;;;;;;10.56;71.17;99976.36;234654;1204;139588;-58
2021/10/18 19:32:49;;;;;;;50.80;30.40;;;;;;;10.49;71.38;99990.88;234581;1204;126248;-60
2021/10/18 19:37:52;;;;;;;47.40;30.70;;;;;;;10.51;71.29;99986.66;233653;1205;139811;-60
2021/10/18 19:42:55;;;;;;;43.60;28.20;;;;;;;10.52;71.28;100010.95;234570;1203;140084;-59
2021/10/18 19:47:58;;;;;;;47.90;28.50;;;;;;;10.50;71.61;100012.63;234762;1203;139014;-59
2021/10/18 19:53:01;;;;;;;43.40;27.80;;;;;;;10.51;71.30;100014.17;234597;1204;140330;-61
2021/10/18 20:02:49;;;;;;;47.30;29.80;;;;;;;10.56;71.29;100000.30;233929;1211;635758;-59
2021/10/18 20:07:52;;;;;;;47.10;28.40;;;;;;;10.51;71.09;100009.02;235645;1193;142432;-59
2021/10/18 20:12:55;;;;;;;46.60;27.50;;;;;;;10.51;71.31;100014.03;235766;1198;138999;-59
2021/10/18 20:18:03;;;;;;;44.30;27.60;;;;;;;10.57;71.17;100006.98;236048;1198;139059;-59
2021/10/18 20:23:06;;;;;;;47.70;29.20;;;;;;;10.59;71.12;100008.84;235931;1196;139703;-59
2021/10/18 20:28:09;;;;;;;48.70;28.60;;;;;;;10.61;71.03;100017.27;235322;1196;140482;-59
2021/10/18 20:33:12;;;;;;;45.80;27.30;;;;;;;10.63;70.98;100020.02;235825;1196;138166;-58
2021/10/18 20:38:16;;;;;;;48.20;29.50;;;;;;;10.66;70.71;100020.27;235899;1196;139788;-58
2021/10/18 20:43:19;;;;;;;43.70;25.40;;;;;;;10.66;71.00;100016.16;235595;1197;139042;-61
2021/10/18 20:48:23;;;;;;;42.70;26.90;;;;;;;10.70;70.81;100024.33;236123;1196;138409;-59
2021/10/18 20:53:26;;;;;;;41.50;26.60;;;;;;;10.72;70.71;100026.89;235684;1196;139117;-62
2021/10/18 20:58:29;;;;;;;42.20;25.60;;;;;;;10.73;70.68;100023.10;235770;1196;140103;-58
2021/10/18 21:03:32;;;;;;;43.70;25.80;;;;;;;10.74;70.59;100021.83;235919;1197;139220;-60
2021/10/18 21:08:35;;;;;;;44.30;27.20;;;;;;;10.74;70.69;100023.41;235964;1196;139534;-60
2021/10/18 21:13:38;;;;;;;45.50;27.50;;;;;;;10.74;70.82;100021.47;235928;1197;138569;-59
2021/10/18 21:18:42;;;;;;;48.20;27.10;;;;;;;10.71;70.63;100028.89;235289;1197;138766;-59
2021/10/18 21:23:45;;;;;;;48.50;25.30;;;;;;;10.69;70.47;100027.37;235390;1197;139425;-59
2021/10/18 21:28:49;;;;;;;49.60;27.90;;;;;;;10.69;70.50;100027.54;235982;1197;138823;-61
2021/10/18 21:33:52;;;;;;;47.90;27.30;;;;;;;10.70;70.52;100025.21;234693;1197;140235;-59
2021/10/18 21:38:55;;;;;;;48.20;27.90;;;;;;;10.63;70.25;100022.49;235927;1198;138880;-60
2021/10/18 21:43:59;;;;;;;45.70;27.70;;;;;;;10.54;70.45;100024.52;235901;1196;138564;-59
2021/10/18 21:49:02;;;;;;;44.40;26.20;;;;;;;10.50;70.24;100025.61;235911;1196;140192;-59
2021/10/18 21:54:06;;;;;;;44.20;25.40;;;;;;;10.49;70.23;100026.17;236084;1197;138584;-58
2021/10/18 21:59:08;;;;;;;48.50;27.20;;;;;;;10.48;70.62;100025.89;234612;1198;140258;-57
2021/10/18 22:04:12;;;;;;;44.90;26.50;;;;;;;10.45;70.29;100017.51;235912;1196;138795;-58
2021/10/18 22:09:15;;;;;;;41.50;26.60;;;;;;;10.42;70.59;100019.91;236018;1190;138763;-60
2021/10/18 22:14:19;;;;;;;44.10;26.00;;;;;;;10.41;70.59;100019.22;235853;1196;138588;-59
2021/10/18 22:19:22;;;;;;;45.30;26.00;;;;;;;10.43;70.59;100023.58;235906;1197;139045;-61
2021/10/18 22:24:25;;;;;;;43.50;26.10;;;;;;;10.45;70.63;100028.83;236116;1196;137993;-60
2021/10/18 22:29:29;;;;;;;45.80;27.00;;;;;;;10.47;70.54;100025.71;235825;1196;140074;-60
2021/10/18 22:34:33;;;;;;;44.20;26.10;;;;;;;10.45;70.63;100029.36;235577;1190;139184;-59
2021/10/18 22:39:38;;;;;;;47.80;26.20;;;;;;;10.47;70.65;100024.86;236004;1197;139459;-62
2021/10/18 22:44:41;;;;;;;42.40;26.80;;;;;;;10.51;70.56;100025.20;235930;1196;139524;-58
2021/10/18 22:49:44;;;;;;;220.60;126.40;;;;;;;10.52;70.49;100021.06;235914;1197;140157;-58
2021/10/18 22:54:47;;;;;;;53.40;31.10;;;;;;;10.58;70.65;100018.80;236170;1196;138567;-58
2021/10/18 22:59:50;;;;;;;48.10;28.00;;;;;;;10.57;70.49;100019.41;235912;1198;138904;-57
2021/10/18 23:04:53;;;;;;;47.10;26.50;;;;;;;10.51;70.31;100019.31;235922;1196;138223;-58
2021/10/18 23:09:57;;;;;;;48.40;27.90;;;;;;;10.48;70.13;100018.21;235877;1190;139217;-57
2021/10/18 23:15:01;;;;;;;46.90;28.20;;;;;;;10.48;70.18;100017.52;236023;1197;139920;-60
2021/10/18 23:20:05;;;;;;;45.10;27.60;;;;;;;10.48;70.39;100008.66;235823;1198;138754;-60
2021/10/18 23:25:08;;;;;;;49.00;28.10;;;;;;;10.50;70.36;100003.45;235947;1196;138560;-60
2021/10/18 23:30:11;;;;;;;55.40;29.00;;;;;;;10.49;70.10;100001.69;236087;1198;138455;-59
2021/10/18 23:35:14;;;;;;;49.30;28.90;;;;;;;10.49;70.15;100006.11;236001;1196;138491;-61
2021/10/18 23:40:18;;;;;;;50.90;29.50;;;;;;;10.48;69.95;100012.91;235962;1197;140916;-58
2021/10/18 23:45:21;;;;;;;54.20;30.40;;;;;;;10.48;70.03;100017.16;235889;1198;139221;-57
2021/10/18 23:50:24;;;;;;;53.50;30.80;;;;;;;10.49;70.16;100019.06;236039;1197;139112;-60
2021/10/18 23:55:27;;;;;;;55.60;31.70;;;;;;;10.50;70.20;100015.65;235969;1198;138405;-58
